createdAt,value
2022-12-14T00:01:54.861Z,18.70
2022-12-14T00:04:23.944Z,17.50
2022-12-14T00:06:52.910Z,16.40
2022-12-14T00:09:20.886Z,18.17
2022-12-14T00:11:50.956Z,15.43
2022-12-14T00:14:18.959Z,19.40
2022-12-14T00:16:50.708Z,14.00
2022-12-14T00:19:18.664Z,18.00
2022-12-14T00:21:46.915Z,15.13
2022-12-14T00:24:15.820Z,14.60
2022-12-14T00:26:44.014Z,14.90
2022-12-14T00:29:13.169Z,14.40
2022-12-14T00:31:41.617Z,14.90
2022-12-14T00:34:11.036Z,15.37
2022-12-14T00:36:39.193Z,11.70
2022-12-14T00:39:07.712Z,16.33
2022-12-14T00:41:38.722Z,10.60
2022-12-14T00:44:09.997Z,10.90
2022-12-14T00:46:38.081Z,13.67
2022-12-14T00:49:06.110Z,15.53
2022-12-14T00:51:36.284Z,14.73
2022-12-14T00:54:04.579Z,13.53
2022-12-14T00:56:36.230Z,14.17
2022-12-14T00:59:04.948Z,14.07
2022-12-14T01:01:32.953Z,15.77
2022-12-14T01:04:15.948Z,12.60
2022-12-14T01:06:48.005Z,18.30
2022-12-14T01:09:17.252Z,17.80
2022-12-14T01:11:45.686Z,11.43
2022-12-14T01:14:17.090Z,13.93
2022-12-14T01:16:45.488Z,15.30
2022-12-14T01:19:14.863Z,11.47
2022-12-14T01:21:43.513Z,17.57
2022-12-14T01:24:12.838Z,11.77
2022-12-14T01:26:43.781Z,14.67
2022-12-14T01:29:13.634Z,14.27
2022-12-14T01:31:43.661Z,11.10
2022-12-14T01:34:17.320Z,13.23
2022-12-14T01:36:45.656Z,9.80
2022-12-14T01:39:19.291Z,10.50
2022-12-14T01:41:50.501Z,11.80
2022-12-14T01:45:09.192Z,12.50
2022-12-14T01:47:43.504Z,12.20
2022-12-14T01:50:18.716Z,15.43
2022-12-14T01:52:50.475Z,7.63
2022-12-14T01:55:26.509Z,12.60
2022-12-14T01:57:59.634Z,10.47
2022-12-14T02:00:28.408Z,12.33
2022-12-14T02:03:01.364Z,9.80
2022-12-14T02:05:34.727Z,9.07
2022-12-14T02:08:05.980Z,12.10
2022-12-14T02:10:37.551Z,8.13
2022-12-14T02:13:11.718Z,12.23
2022-12-14T02:15:40.403Z,13.30
2022-12-14T02:18:11.268Z,10.87
2022-12-14T02:20:55.464Z,10.70
2022-12-14T02:23:46.707Z,8.33
2022-12-14T02:26:45.126Z,11.30
2022-12-14T02:29:43.372Z,10.83
2022-12-14T02:32:24.154Z,9.47
2022-12-14T02:35:00.686Z,9.53
2022-12-14T02:40:28.154Z,9.77
2022-12-14T02:43:08.426Z,10.07
2022-12-14T02:45:42.297Z,8.57
2022-12-14T02:48:19.782Z,11.47
2022-12-14T02:50:56.526Z,11.43
2022-12-14T02:53:30.435Z,11.07
2022-12-14T02:56:03.441Z,11.00
2022-12-14T02:58:35.953Z,9.43
2022-12-14T03:01:06.565Z,9.30
2022-12-14T03:03:35.995Z,10.03
2022-12-14T03:06:15.047Z,10.63
2022-12-14T03:08:46.795Z,8.20
2022-12-14T03:11:19.496Z,9.27
2022-12-14T03:13:53.229Z,9.83
2022-12-14T03:16:26.079Z,11.10
2022-12-14T03:19:04.077Z,8.30
2022-12-14T03:21:37.300Z,13.97
2022-12-14T03:24:10.017Z,13.77
2022-12-14T03:26:47.421Z,8.60
2022-12-14T03:29:19.480Z,9.03
2022-12-14T03:31:52.850Z,6.97
2022-12-14T03:34:27.704Z,9.13
2022-12-14T03:37:05.609Z,8.47
2022-12-14T03:39:35.359Z,10.43
2022-12-14T03:42:11.570Z,8.97
2022-12-14T03:44:49.615Z,10.03
2022-12-14T03:47:34.159Z,10.20
2022-12-14T03:50:11.336Z,12.53
2022-12-14T03:52:43.891Z,8.87
2022-12-14T03:55:27.558Z,9.53
2022-12-14T03:58:11.134Z,11.03
2022-12-14T04:00:46.538Z,12.93
2022-12-14T04:03:20.159Z,8.33
2022-12-14T04:05:53.764Z,8.43
2022-12-14T04:08:33.457Z,8.07
2022-12-14T04:11:22.261Z,7.77
2022-12-14T04:14:17.795Z,10.67
2022-12-14T04:17:06.510Z,9.57
2022-12-14T04:19:42.219Z,5.63
2022-12-14T04:22:15.541Z,10.03
2022-12-14T04:25:05.315Z,10.43
2022-12-14T04:27:37.227Z,9.30
2022-12-14T04:30:07.218Z,11.67
2022-12-14T04:32:40.096Z,7.80
2022-12-14T04:35:13.171Z,12.33
2022-12-14T04:37:48.637Z,8.40
2022-12-14T04:40:22.906Z,8.90
2022-12-14T04:42:57.527Z,8.00
2022-12-14T04:45:29.892Z,10.83
2022-12-14T04:48:06.965Z,6.93
2022-12-14T04:50:40.964Z,9.17
2022-12-14T04:53:14.621Z,8.23
2022-12-14T04:55:50.345Z,10.60
2022-12-14T04:58:23.462Z,8.47
2022-12-14T05:01:08.311Z,9.10
2022-12-14T05:03:45.159Z,8.63
2022-12-14T05:06:22.807Z,7.50
2022-12-14T05:09:12.541Z,7.43
2022-12-14T05:11:54.796Z,10.60
2022-12-14T05:14:37.113Z,8.00
2022-12-14T05:17:09.171Z,8.87
2022-12-14T05:19:45.389Z,15.20
2022-12-14T05:22:18.597Z,9.83
2022-12-14T05:24:50.675Z,6.40
2022-12-14T05:27:20.550Z,8.83
2022-12-14T05:29:49.055Z,7.30
2022-12-14T05:32:18.071Z,6.70
2022-12-14T05:34:46.077Z,7.87
2022-12-14T05:37:18.248Z,8.77
2022-12-14T05:39:48.939Z,7.77
2022-12-14T05:42:17.594Z,9.33
2022-12-14T05:44:46.018Z,10.00
2022-12-14T05:47:15.451Z,9.17
2022-12-14T05:49:46.571Z,9.50
2022-12-14T05:52:17.955Z,8.70
2022-12-14T05:54:48.700Z,8.73
2022-12-14T05:57:19.217Z,8.70
2022-12-14T05:59:47.284Z,10.23
2022-12-14T06:02:19.450Z,8.70
2022-12-14T06:04:47.782Z,5.50
2022-12-14T06:07:16.262Z,10.53
2022-12-14T06:09:44.241Z,8.70
2022-12-14T06:12:12.790Z,6.97
2022-12-14T06:14:42.140Z,8.83
2022-12-14T06:17:12.462Z,12.10
2022-12-14T06:19:40.536Z,8.57
2022-12-14T06:22:08.546Z,9.77
2022-12-14T06:24:37.006Z,10.20
2022-12-14T06:27:05.583Z,13.50
2022-12-14T06:29:33.783Z,6.60
2022-12-14T06:32:03.855Z,9.10
2022-12-14T06:34:36.886Z,7.57
2022-12-14T06:37:08.068Z,7.73
2022-12-14T06:39:36.965Z,5.53
2022-12-14T06:42:05.664Z,8.20
2022-12-14T06:44:33.717Z,8.40
2022-12-14T06:47:03.713Z,9.20
2022-12-14T06:49:36.934Z,7.03
2022-12-14T06:52:08.045Z,7.77
2022-12-14T06:54:36.096Z,8.33
2022-12-14T06:57:04.580Z,11.03
2022-12-14T06:59:35.218Z,7.90
2022-12-14T07:02:07.120Z,8.77
2022-12-14T07:04:36.318Z,8.23
2022-12-14T07:07:04.569Z,8.03
2022-12-14T07:09:33.700Z,13.00
2022-12-14T07:12:01.750Z,7.20
2022-12-14T07:14:30.090Z,8.00
2022-12-14T07:16:58.118Z,6.57
2022-12-14T07:19:28.038Z,8.33
2022-12-14T07:21:56.068Z,12.00
2022-12-14T07:24:26.684Z,6.97
2022-12-14T07:26:56.305Z,7.70
2022-12-14T07:29:32.671Z,5.57
2022-12-14T07:32:03.598Z,14.07
2022-12-14T07:34:33.445Z,8.90
2022-12-14T07:37:04.738Z,8.87
2022-12-14T07:39:33.501Z,13.60
2022-12-14T07:42:01.672Z,12.90
2022-12-14T07:44:30.808Z,10.60
2022-12-14T07:46:59.486Z,16.93
2022-12-14T07:49:27.566Z,9.47
2022-12-14T07:51:56.969Z,9.07
2022-12-14T07:54:28.644Z,10.23
2022-12-14T07:56:56.987Z,10.40
2022-12-14T07:59:25.174Z,15.90
2022-12-14T08:01:56.173Z,11.30
2022-12-14T08:04:24.315Z,14.03
2022-12-14T08:06:52.332Z,11.77
2022-12-14T08:09:21.889Z,12.13
2022-12-14T08:11:49.854Z,14.97
2022-12-14T08:14:19.714Z,10.97
2022-12-14T08:16:57.136Z,11.83
2022-12-14T08:19:25.573Z,12.13
2022-12-14T08:21:53.570Z,18.17
2022-12-14T08:24:23.074Z,10.90
2022-12-14T08:26:51.586Z,12.83
2022-12-14T08:29:20.346Z,11.97
2022-12-14T08:31:48.806Z,12.60
2022-12-14T08:34:24.455Z,15.37
2022-12-14T08:36:52.503Z,17.53
2022-12-14T08:39:20.464Z,14.37
2022-12-14T08:41:58.073Z,15.93
2022-12-14T08:44:26.547Z,15.50
2022-12-14T08:46:54.605Z,13.97
2022-12-14T08:49:26.399Z,13.43
2022-12-14T08:51:58.135Z,14.27
2022-12-14T08:54:26.116Z,11.17
2022-12-14T08:56:55.900Z,10.60
2022-12-14T08:59:59.545Z,15.23
2022-12-14T09:02:13.471Z,15.00
2022-12-14T09:04:42.091Z,13.97
2022-12-14T09:07:16.010Z,12.40
2022-12-14T09:09:44.581Z,11.17
2022-12-14T09:12:13.940Z,18.23
2022-12-14T09:14:46.473Z,14.13
2022-12-14T09:17:20.348Z,15.67
2022-12-14T09:19:51.417Z,13.23
2022-12-14T09:22:21.882Z,11.10
2022-12-14T09:24:51.937Z,14.43
2022-12-14T09:27:22.347Z,10.23
2022-12-14T09:29:52.100Z,14.00
2022-12-14T09:32:20.532Z,16.90
2022-12-14T09:34:48.520Z,13.17
2022-12-14T09:37:16.903Z,12.50
2022-12-14T09:39:47.375Z,14.20
2022-12-14T09:42:35.405Z,13.80
2022-12-14T09:45:08.078Z,13.30
2022-12-14T09:47:43.119Z,13.63
2022-12-14T09:50:15.822Z,14.17
2022-12-14T09:52:46.789Z,15.33
2022-12-14T09:55:24.293Z,14.40
2022-12-14T09:57:59.106Z,12.13
2022-12-14T10:00:34.784Z,16.53
2022-12-14T10:03:23.473Z,17.20
2022-12-14T10:06:10.547Z,17.20
2022-12-14T10:08:47.012Z,14.23
2022-12-14T10:11:27.967Z,12.50
2022-12-14T10:14:16.540Z,12.30
2022-12-14T10:16:57.649Z,17.07
2022-12-14T10:19:41.007Z,12.37
2022-12-14T10:22:14.897Z,14.33
2022-12-14T10:24:45.924Z,15.80
2022-12-14T10:27:23.053Z,14.73
2022-12-14T10:30:01.023Z,17.10
2022-12-14T10:32:35.181Z,15.27
2022-12-14T10:35:14.492Z,13.73
2022-12-14T10:37:46.237Z,12.97
2022-12-14T10:40:33.600Z,11.57
2022-12-14T10:43:18.345Z,14.67
2022-12-14T10:45:52.754Z,15.87
2022-12-14T10:48:41.434Z,13.03
2022-12-14T10:51:13.561Z,12.90
2022-12-14T10:53:47.714Z,16.77
2022-12-14T10:56:23.074Z,16.67
2022-12-14T10:59:38.929Z,15.47
2022-12-14T11:02:19.265Z,16.97
2022-12-14T11:04:51.756Z,14.13
2022-12-14T11:07:29.338Z,18.67
2022-12-14T11:10:17.601Z,13.60
2022-12-14T11:13:01.455Z,13.60
2022-12-14T11:15:34.623Z,15.40
2022-12-14T11:18:07.237Z,10.90
2022-12-14T11:20:35.854Z,14.10
2022-12-14T11:23:18.442Z,13.70
2022-12-14T11:25:50.041Z,7.80
2022-12-14T11:28:34.405Z,7.33
2022-12-14T11:31:08.070Z,10.87
2022-12-14T11:33:41.204Z,10.70
2022-12-14T11:36:10.332Z,14.00
2022-12-14T11:38:38.718Z,9.67
2022-12-14T11:41:11.517Z,12.53
2022-12-14T11:43:41.664Z,9.30
2022-12-14T11:46:09.736Z,11.93
2022-12-14T11:48:51.424Z,12.07
2022-12-14T11:51:19.637Z,12.23
2022-12-14T11:54:04.062Z,11.93
2022-12-14T11:56:32.331Z,13.53
2022-12-14T11:59:00.419Z,12.77
2022-12-14T12:01:29.553Z,15.00
2022-12-14T12:04:01.998Z,10.27
2022-12-14T12:06:31.615Z,10.93
2022-12-14T12:09:01.860Z,12.60
2022-12-14T12:11:33.281Z,11.30
2022-12-14T12:14:04.221Z,15.57
2022-12-14T12:16:35.645Z,14.43
2022-12-14T12:19:12.344Z,18.63
2022-12-14T12:21:45.042Z,14.43
2022-12-14T12:24:19.329Z,14.43
2022-12-14T12:26:50.799Z,11.60
2022-12-14T12:29:25.253Z,21.40
2022-12-14T12:32:01.340Z,14.30
2022-12-14T12:34:35.985Z,23.80
2022-12-14T12:37:26.207Z,14.13
2022-12-14T12:40:01.530Z,14.83
2022-12-14T12:42:44.655Z,16.57
2022-12-14T12:45:21.892Z,14.23
2022-12-14T12:47:56.274Z,16.13
2022-12-14T12:50:30.639Z,20.47
2022-12-14T12:53:03.936Z,18.10
2022-12-14T12:55:36.617Z,15.53
2022-12-14T12:58:09.539Z,16.20
2022-12-14T13:00:41.067Z,19.90
2022-12-14T13:03:14.780Z,15.17
2022-12-14T13:05:47.726Z,11.60
2022-12-14T13:08:24.831Z,14.83
2022-12-14T13:13:49.133Z,18.10
2022-12-14T13:16:26.569Z,15.00
2022-12-14T13:19:25.337Z,16.67
2022-12-14T13:21:54.656Z,10.53
2022-12-14T13:24:25.353Z,14.77
2022-12-14T13:27:17.925Z,13.50
2022-12-14T13:30:02.601Z,13.30
2022-12-14T13:32:47.903Z,13.93
2022-12-14T13:35:37.727Z,12.77
2022-12-14T13:38:32.815Z,15.70
2022-12-14T13:41:29.067Z,15.23
2022-12-14T13:44:34.411Z,12.80
2022-12-14T13:47:12.986Z,11.80
2022-12-14T13:50:05.206Z,15.40
2022-12-14T13:52:40.865Z,12.47
2022-12-14T13:55:28.132Z,14.33
2022-12-14T13:58:10.289Z,11.73
2022-12-14T14:01:07.361Z,12.07
2022-12-14T14:03:53.751Z,18.83
2022-12-14T14:06:40.678Z,17.33
2022-12-14T14:09:48.242Z,13.80
2022-12-14T14:12:43.231Z,13.53
2022-12-14T14:15:51.990Z,13.13
2022-12-14T14:18:29.134Z,13.53
2022-12-14T14:21:58.995Z,12.67
2022-12-14T14:24:28.966Z,15.40
2022-12-14T14:27:08.985Z,13.53
2022-12-14T14:29:44.763Z,14.77
2022-12-14T14:32:33.694Z,14.70
2022-12-14T14:35:03.734Z,15.20
2022-12-14T14:37:34.974Z,13.37
2022-12-14T14:40:44.159Z,16.63
2022-12-14T14:43:27.917Z,13.33
2022-12-14T14:46:01.858Z,17.23
2022-12-14T14:48:34.953Z,14.73
2022-12-14T14:51:17.391Z,17.67
2022-12-14T14:53:46.689Z,10.53
2022-12-14T14:56:35.135Z,12.10
2022-12-14T14:59:51.002Z,19.27
2022-12-14T15:02:31.791Z,17.33
2022-12-14T15:05:24.826Z,12.77
2022-12-14T15:07:49.895Z,16.33
2022-12-14T15:10:27.784Z,22.30
2022-12-14T15:13:00.582Z,17.90
2022-12-14T15:15:36.814Z,16.07
2022-12-14T15:18:18.090Z,16.80
2022-12-14T15:20:58.455Z,19.60
2022-12-14T15:23:38.189Z,23.10
2022-12-14T15:26:16.886Z,19.40
2022-12-14T15:28:49.424Z,20.23
2022-12-14T15:31:18.746Z,17.20
2022-12-14T15:33:48.979Z,23.23
2022-12-14T15:36:19.694Z,20.13
2022-12-14T15:38:58.578Z,30.10
2022-12-14T15:41:34.597Z,17.13
2022-12-14T15:44:02.744Z,19.10
2022-12-14T15:46:33.313Z,20.50
2022-12-14T15:49:04.929Z,25.03
2022-12-14T15:51:36.426Z,17.03
2022-12-14T15:54:07.766Z,23.83
2022-12-14T15:56:41.836Z,20.77
2022-12-14T15:59:20.467Z,25.30
2022-12-14T16:01:58.785Z,23.67
2022-12-14T16:04:36.041Z,22.73
2022-12-14T16:07:09.428Z,20.50
2022-12-14T16:09:42.991Z,22.50
2022-12-14T16:12:18.265Z,20.80
2022-12-14T16:14:49.898Z,28.33
2022-12-14T16:17:21.904Z,23.83
2022-12-14T16:20:00.009Z,25.77
2022-12-14T16:22:30.935Z,23.10
2022-12-14T16:25:16.983Z,22.43
2022-12-14T16:27:49.966Z,29.17
2022-12-14T16:30:25.057Z,23.07
2022-12-14T16:33:04.269Z,25.93
2022-12-14T16:35:37.325Z,29.90
2022-12-14T16:38:13.096Z,31.23
2022-12-14T16:40:46.638Z,25.23
2022-12-14T16:43:27.258Z,20.43
2022-12-14T16:46:18.051Z,25.23
2022-12-14T16:49:23.322Z,37.63
2022-12-14T16:52:09.374Z,27.40
2022-12-14T16:54:46.409Z,27.13
2022-12-14T16:57:21.059Z,24.57
2022-12-14T17:00:02.930Z,32.00
2022-12-14T17:02:36.315Z,26.50
2022-12-14T17:05:13.006Z,21.10
2022-12-14T17:07:43.162Z,20.50
2022-12-14T17:10:15.647Z,30.33
2022-12-14T17:12:45.713Z,22.50
2022-12-14T17:15:14.845Z,19.77
2022-12-14T17:17:43.476Z,19.73
2022-12-14T17:20:20.332Z,24.40
2022-12-14T17:22:50.365Z,25.70
2022-12-14T17:25:19.844Z,23.33
2022-12-14T17:27:50.022Z,22.57
2022-12-14T17:30:20.776Z,22.60
2022-12-14T17:32:49.890Z,23.77
2022-12-14T17:35:21.124Z,24.67
2022-12-14T17:37:52.714Z,26.67
2022-12-14T17:40:24.110Z,20.27
2022-12-14T17:42:54.434Z,23.60
2022-12-14T17:45:25.856Z,22.00
2022-12-14T17:47:54.570Z,30.70
2022-12-14T17:50:23.114Z,25.10
2022-12-14T17:52:53.759Z,18.70
2022-12-14T17:55:23.885Z,18.40
2022-12-14T17:57:52.561Z,25.53
2022-12-14T18:00:40.513Z,20.50
2022-12-14T18:03:10.533Z,18.47
2022-12-14T18:05:44.911Z,22.07
2022-12-14T18:08:19.697Z,25.40
2022-12-14T18:10:50.506Z,23.20
2022-12-14T18:13:19.375Z,22.43
2022-12-14T18:15:50.528Z,20.23
2022-12-14T18:18:29.467Z,19.40
2022-12-14T18:21:00.196Z,16.10
2022-12-14T18:23:34.877Z,22.47
2022-12-14T18:26:05.143Z,24.93
2022-12-14T18:28:33.785Z,19.73
2022-12-14T18:31:05.970Z,27.57
2022-12-14T18:33:35.493Z,27.53
2022-12-14T18:36:03.607Z,27.10
2022-12-14T18:38:33.439Z,29.30
2022-12-14T18:41:03.243Z,33.43
2022-12-14T18:43:33.796Z,29.43
2022-12-14T18:46:04.385Z,32.83
2022-12-14T18:48:32.453Z,28.90
2022-12-14T18:51:01.213Z,28.23
2022-12-14T18:53:30.654Z,25.70
2022-12-14T18:56:01.366Z,46.47
2022-12-14T18:58:30.195Z,30.40
2022-12-14T19:01:02.778Z,25.80
2022-12-14T19:03:36.024Z,23.83
2022-12-14T19:06:42.094Z,25.00
2022-12-14T19:08:58.108Z,28.10
2022-12-14T19:11:33.635Z,21.50
2022-12-14T19:14:02.642Z,30.63
2022-12-14T19:16:31.644Z,26.60
2022-12-14T19:19:00.676Z,23.13
2022-12-14T19:21:30.144Z,27.33
2022-12-14T19:23:59.386Z,21.70
2022-12-14T19:26:29.604Z,22.27
2022-12-14T19:28:58.421Z,22.83
2022-12-14T19:31:26.584Z,17.90
2022-12-14T19:33:56.131Z,21.53
2022-12-14T19:36:28.495Z,19.27
2022-12-14T19:38:57.571Z,19.27
2022-12-14T19:41:25.799Z,26.47
2022-12-14T19:43:57.308Z,20.50
2022-12-14T19:46:27.752Z,25.27
2022-12-14T19:48:57.711Z,26.57
2022-12-14T19:51:28.115Z,20.80
2022-12-14T19:54:03.799Z,19.30
2022-12-14T19:56:31.880Z,30.67
2022-12-14T19:59:03.868Z,25.03
2022-12-14T20:01:37.080Z,23.13
2022-12-14T20:04:06.176Z,16.93
2022-12-14T20:06:34.857Z,21.77
2022-12-14T20:09:08.399Z,23.70
2022-12-14T20:11:37.059Z,21.40
2022-12-14T20:14:07.019Z,27.20
2022-12-14T20:16:37.151Z,23.90
2022-12-14T20:19:06.693Z,22.17
2022-12-14T20:21:35.049Z,32.37
2022-12-14T20:24:03.741Z,25.50
2022-12-14T20:26:32.370Z,22.77
2022-12-14T20:29:05.740Z,19.83
2022-12-14T20:31:37.457Z,27.87
2022-12-14T20:34:07.901Z,23.43
2022-12-14T20:36:37.435Z,19.73
2022-12-14T20:39:06.662Z,20.60
2022-12-14T20:41:37.776Z,24.63
2022-12-14T20:44:09.726Z,22.07
2022-12-14T20:46:42.095Z,21.40
2022-12-14T20:49:15.264Z,22.03
2022-12-14T20:51:46.765Z,23.00
2022-12-14T20:54:18.156Z,21.97
2022-12-14T20:56:49.662Z,32.23
2022-12-14T20:59:19.118Z,28.40
2022-12-14T21:01:55.028Z,29.27
2022-12-14T21:04:23.945Z,27.00
2022-12-14T21:06:52.544Z,24.53
2022-12-14T21:09:21.161Z,23.17
2022-12-14T21:12:08.535Z,23.27
2022-12-14T21:14:40.171Z,25.80
2022-12-14T21:17:11.036Z,18.87
2022-12-14T21:19:39.204Z,18.63
2022-12-14T21:22:09.291Z,24.80
2022-12-14T21:27:30.861Z,20.00
2022-12-14T21:30:00.905Z,19.07
2022-12-14T21:32:30.865Z,19.37
2022-12-14T21:35:00.845Z,22.33
2022-12-14T21:37:28.883Z,22.13
2022-12-14T21:39:56.860Z,21.97
2022-12-14T21:42:25.420Z,23.17
2022-12-14T21:44:55.107Z,24.37
2022-12-14T21:47:26.596Z,20.53
2022-12-14T21:49:56.542Z,21.97
2022-12-14T21:52:27.540Z,23.30
2022-12-14T21:54:58.832Z,32.60
2022-12-14T21:57:50.493Z,24.30
2022-12-14T22:00:20.641Z,23.00
2022-12-14T22:02:49.421Z,27.10
2022-12-14T22:05:19.173Z,22.33
2022-12-14T22:07:47.756Z,25.10
2022-12-14T22:10:21.249Z,26.20
2022-12-14T22:12:51.018Z,25.70
2022-12-14T22:15:19.090Z,29.40
2022-12-14T22:17:47.421Z,24.03
2022-12-14T22:20:15.659Z,25.23
2022-12-14T22:22:46.513Z,30.10
2022-12-14T22:25:15.379Z,26.00
2022-12-14T22:27:44.374Z,30.03
2022-12-14T22:30:19.521Z,25.43
2022-12-14T22:32:47.755Z,24.73
2022-12-14T22:35:16.586Z,27.83
2022-12-14T22:37:46.467Z,30.10
2022-12-14T22:40:17.322Z,25.90
2022-12-14T22:42:46.172Z,26.17
2022-12-14T22:45:15.066Z,25.47
2022-12-14T22:47:44.161Z,30.37
2022-12-14T22:50:12.626Z,24.27
2022-12-14T22:52:40.809Z,22.13
2022-12-14T22:55:11.701Z,29.73
2022-12-14T22:57:44.170Z,25.23
2022-12-14T23:00:16.210Z,30.03
2022-12-14T23:02:48.221Z,34.47
2022-12-14T23:05:18.211Z,26.07
2022-12-14T23:07:47.792Z,29.87
2022-12-14T23:10:35.773Z,32.47
2022-12-14T23:13:25.093Z,30.87
2022-12-14T23:16:10.632Z,27.63
2022-12-14T23:18:56.678Z,34.70
2022-12-14T23:21:42.221Z,23.57
2022-12-14T23:24:29.247Z,22.83
2022-12-14T23:27:19.266Z,27.57
2022-12-14T23:30:08.203Z,20.17
2022-12-14T23:32:53.929Z,27.80
2022-12-14T23:35:40.232Z,29.00
2022-12-14T23:38:28.673Z,26.87
2022-12-14T23:41:18.142Z,24.10
2022-12-14T23:44:05.790Z,21.10
2022-12-14T23:46:52.204Z,23.73
2022-12-14T23:49:40.132Z,24.63
2022-12-14T23:52:27.637Z,24.67
2022-12-14T23:55:13.185Z,24.13
2022-12-14T23:58:00.731Z,22.30
